Terminal Aerodrome Forecast
Issued by NWS

Home | Current Version | Previous Version | Text Only | Print | Product List | Glossary On
Versions: 1 2 3 4 5 6 7 8 9 10 11 12
000
FTUS42 TJSJ 141738
TAFNCM
TAF
TNCM 141738Z 1418/1518 11008KT P6SM SCT022
     FM142200 08012KT P6SM FEW022
     FM151200 06017KT P6SM VCSH FEW020 SCT040=

USA.gov is the U.S. government's official web portal to all federal, state and local government web resources and services.